This is the latest recevied weather packets stored in our database for station/object LRTM. If no packets are shown the sender has not sent any weather packets the latest 1 day(s).
| Time | Temp. | Humidity | Pressure | Rain* | Wind** | Luminosity | Snow |
|---|---|---|---|---|---|---|---|
| 1777981714 | 25° C | 26% | 1014 hPa | - | 2.68 m/s, 260° | - | - |
| 1777980837 | 25° C | 26% | 1014 hPa | - | 2.68 m/s, 260° | - | - |
| 1777978107 | 23.89° C | 29% | 1015 hPa | - | 2.24 m/s, 260° | - | - |
| 1777977208 | 23.89° C | 29% | 1015 hPa | - | 2.24 m/s, 260° | - | - |
| 1777976307 | 22.78° C | 29% | 1015 hPa | - | 2.24 m/s, 240° | - | - |
| 1777975406 | 22.78° C | 29% | 1015 hPa | - | 2.24 m/s, 240° | - | - |
| 1777965506 | 16.11° C | 59% | 1017 hPa | - | 1.34 m/s, 60° | - | - |
| 1777964606 | 16.11° C | 59% | 1017 hPa | - | 1.34 m/s, 60° | - | - |
| 1777963706 | 13.89° C | 63% | 1017 hPa | - | 1.34 m/s, 70° | - | - |
| 1777962807 | 13.89° C | 63% | 1017 hPa | - | 1.34 m/s, 70° | - | - |
| 1777961906 | 12.22° C | 67% | 1017 hPa | - | 2.24 m/s, 70° | - | - |
| 1777961006 | 12.22° C | 67% | 1017 hPa | - | 2.24 m/s, 70° | - | - |
| 1777960106 | 10° C | 76% | 1017 hPa | - | 2.24 m/s, 70° | - | - |
| 1777959207 | 10° C | 76% | 1017 hPa | - | 2.24 m/s, 70° | - | - |
| 1777958306 | 8.89° C | 76% | 1017 hPa | - | 2.68 m/s, 60° | - | - |
| 1777957406 | 8.89° C | 76% | 1017 hPa | - | 2.68 m/s, 60° | - | - |
| 1777956506 | 7.22° C | 81% | 1017 hPa | - | 2.68 m/s, 90° | - | - |
| 1777955606 | 7.22° C | 81% | 1017 hPa | - | 2.68 m/s, 90° | - | - |
| 1777954706 | 5° C | 87% | 1017 hPa | - | 2.68 m/s, 80° | - | - |
| 1777953806 | 5° C | 87% | 1017 hPa | - | 2.68 m/s, 80° | - | - |
| 1777952906 | 5° C | 81% | 1017 hPa | - | 1.34 m/s, 60° | - | - |
| 1777952006 | 5° C | 81% | 1017 hPa | - | 1.34 m/s, 60° | - | - |
| 1777951106 | 5° C | 87% | 1017 hPa | - | 0.89 m/s, 80° | - | - |
| 1777950206 | 5° C | 87% | 1017 hPa | - | 0.89 m/s, 80° | - | - |
| 1777949306 | 5° C | 81% | 1017 hPa | - | 2.24 m/s, 90° | - | - |
* Rain since midnight (hover to see other rain measurements)
** Current wind speed in m/s (hover to see current wind gust speed)